createdAt,value
2019-04-30T00:02:38.331Z,15.20
2019-04-30T00:05:00.195Z,17.00
2019-04-30T00:07:28.915Z,13.40
2019-04-30T00:09:57.799Z,15.97
2019-04-30T00:12:30.859Z,19.53
2019-04-30T00:14:57.138Z,14.50
2019-04-30T00:17:25.850Z,13.97
2019-04-30T00:19:58.732Z,16.73
2019-04-30T00:22:33.411Z,15.20
2019-04-30T00:24:55.717Z,16.83
2019-04-30T00:27:26.363Z,14.47
2019-04-30T00:29:55.793Z,15.10
2019-04-30T00:32:25.812Z,13.07
2019-04-30T00:37:32.285Z,17.43
2019-04-30T00:40:00.996Z,17.93
2019-04-30T00:42:29.719Z,15.57
2019-04-30T00:44:59.544Z,18.70
2019-04-30T00:47:28.912Z,15.03
2019-04-30T00:50:00.262Z,14.23
2019-04-30T00:52:29.450Z,12.63
2019-04-30T00:55:00.424Z,17.10
2019-04-30T00:57:28.949Z,15.13
2019-04-30T00:59:57.853Z,16.10
2019-04-30T01:02:32.224Z,14.13
2019-04-30T01:05:08.990Z,13.07
2019-04-30T01:07:40.062Z,13.17
2019-04-30T01:10:07.249Z,16.10
2019-04-30T01:12:43.722Z,10.93
2019-04-30T01:15:11.152Z,14.90
2019-04-30T01:17:40.857Z,12.37
2019-04-30T01:20:10.043Z,9.90
2019-04-30T01:22:38.939Z,12.10
2019-04-30T01:25:13.268Z,15.93
2019-04-30T01:27:45.306Z,12.40
2019-04-30T01:30:13.283Z,14.20
2019-04-30T01:32:40.180Z,16.97
2019-04-30T01:35:08.994Z,17.83
2019-04-30T01:37:38.706Z,15.97
2019-04-30T01:40:13.612Z,17.70
2019-04-30T01:42:42.816Z,22.77
2019-04-30T01:45:09.284Z,30.07
2019-04-30T01:47:39.611Z,32.90
2019-04-30T01:50:09.215Z,37.13
2019-04-30T01:52:53.379Z,30.90
2019-04-30T01:55:43.139Z,29.27
2019-04-30T01:58:25.383Z,34.50
2019-04-30T02:01:12.053Z,31.50
2019-04-30T02:03:40.771Z,36.20
2019-04-30T02:06:11.569Z,40.70
2019-04-30T02:08:39.964Z,33.93
2019-04-30T02:11:09.054Z,35.13
2019-04-30T02:13:39.230Z,36.10
2019-04-30T02:16:08.664Z,33.83
2019-04-30T02:18:39.298Z,35.80
2019-04-30T02:21:09.302Z,33.57
2019-04-30T02:23:39.228Z,38.50
2019-04-30T02:26:08.634Z,32.63
2019-04-30T02:28:39.276Z,36.60
2019-04-30T02:31:09.355Z,35.57
2019-04-30T02:33:40.431Z,32.03
2019-04-30T02:36:13.691Z,34.03
2019-04-30T02:38:49.727Z,37.47
2019-04-30T02:41:19.903Z,37.60
2019-04-30T02:43:51.437Z,31.53
2019-04-30T02:46:22.459Z,38.07
2019-04-30T02:48:53.983Z,32.37
2019-04-30T02:51:24.635Z,30.17
2019-04-30T02:54:11.221Z,29.67
2019-04-30T02:56:41.540Z,27.07
2019-04-30T02:59:10.532Z,23.73
2019-04-30T03:01:40.325Z,21.07
2019-04-30T03:04:09.962Z,22.27
2019-04-30T03:06:40.390Z,20.93
2019-04-30T03:09:10.383Z,21.40
2019-04-30T03:11:40.490Z,23.80
2019-04-30T03:14:10.606Z,20.93
2019-04-30T03:16:53.053Z,18.53
2019-04-30T03:19:31.017Z,17.40
2019-04-30T03:22:07.042Z,16.47
2019-04-30T03:24:35.802Z,16.00
2019-04-30T03:27:04.508Z,17.63
2019-04-30T03:29:33.216Z,16.57
2019-04-30T03:32:03.316Z,19.63
2019-04-30T03:34:33.941Z,17.57
2019-04-30T03:37:02.653Z,15.70
2019-04-30T03:39:33.866Z,19.73
2019-04-30T03:42:01.797Z,13.47
2019-04-30T03:44:32.441Z,17.20
2019-04-30T03:47:00.996Z,16.47
2019-04-30T03:49:30.008Z,17.23
2019-04-30T03:51:59.941Z,19.90
2019-04-30T03:54:29.429Z,13.07
2019-04-30T03:57:00.654Z,18.53
2019-04-30T03:59:30.196Z,20.73
2019-04-30T04:02:12.239Z,14.63
2019-04-30T04:04:54.932Z,15.43
2019-04-30T04:07:25.212Z,13.53
2019-04-30T04:10:04.732Z,14.27
2019-04-30T04:12:33.440Z,17.80
2019-04-30T04:15:03.969Z,15.80
2019-04-30T04:17:32.627Z,18.80
2019-04-30T04:20:01.344Z,13.00
2019-04-30T04:22:30.739Z,17.07
2019-04-30T04:25:00.278Z,14.57
2019-04-30T04:27:30.252Z,13.47
2019-04-30T04:30:01.074Z,16.77
2019-04-30T04:32:30.863Z,24.83
2019-04-30T04:35:00.397Z,17.47
2019-04-30T04:37:30.130Z,16.27
2019-04-30T04:39:59.687Z,21.70
2019-04-30T04:42:29.990Z,17.37
2019-04-30T04:44:59.468Z,15.40
2019-04-30T04:47:30.846Z,16.33
2019-04-30T04:50:00.745Z,20.73
2019-04-30T04:52:31.487Z,18.97
2019-04-30T04:55:00.575Z,18.13
2019-04-30T04:57:30.485Z,24.40
2019-04-30T05:00:05.029Z,25.30
2019-04-30T05:02:40.480Z,18.13
2019-04-30T05:05:09.744Z,19.03
2019-04-30T05:07:39.958Z,16.93
2019-04-30T05:10:09.302Z,18.40
2019-04-30T05:12:39.794Z,17.27
2019-04-30T05:15:09.559Z,17.00
2019-04-30T05:17:39.839Z,20.17
2019-04-30T05:20:10.011Z,19.67
2019-04-30T05:22:39.118Z,21.63
2019-04-30T05:25:08.933Z,21.93
2019-04-30T05:27:39.235Z,24.20
2019-04-30T05:30:09.698Z,21.70
2019-04-30T05:32:39.310Z,21.97
2019-04-30T05:35:09.539Z,22.90
2019-04-30T05:37:38.676Z,19.73
2019-04-30T05:40:09.215Z,22.37
2019-04-30T05:42:38.703Z,24.87
2019-04-30T05:45:09.393Z,23.50
2019-04-30T05:47:38.985Z,18.33
2019-04-30T05:50:08.980Z,26.07
2019-04-30T05:52:39.762Z,25.90
2019-04-30T05:55:08.842Z,28.13
2019-04-30T05:57:40.767Z,24.43
2019-04-30T06:00:09.914Z,27.67
2019-04-30T06:02:39.925Z,22.37
2019-04-30T06:05:09.495Z,29.27
2019-04-30T06:07:39.486Z,30.03
2019-04-30T06:10:19.290Z,30.53
2019-04-30T06:12:49.756Z,26.90
2019-04-30T06:15:31.982Z,23.97
2019-04-30T06:18:10.568Z,28.60
2019-04-30T06:20:31.130Z,22.23
2019-04-30T06:23:00.297Z,26.77
2019-04-30T06:25:40.845Z,29.23
2019-04-30T06:28:00.046Z,30.43
2019-04-30T06:30:29.851Z,20.50
2019-04-30T06:32:59.390Z,19.67
2019-04-30T06:35:29.396Z,31.60
2019-04-30T06:37:58.995Z,27.10
2019-04-30T06:40:29.328Z,25.00
2019-04-30T06:43:00.642Z,15.53
2019-04-30T06:45:31.028Z,25.70
2019-04-30T06:48:03.022Z,17.37
2019-04-30T06:50:31.732Z,23.20
2019-04-30T06:53:01.616Z,22.30
2019-04-30T06:55:31.014Z,30.23
2019-04-30T06:58:11.468Z,22.30
2019-04-30T07:00:40.497Z,18.93
2019-04-30T07:03:09.793Z,25.90
2019-04-30T07:05:39.096Z,19.50
2019-04-30T07:08:37.383Z,21.90
2019-04-30T07:11:16.485Z,21.07
2019-04-30T07:13:46.804Z,20.23
2019-04-30T07:16:15.513Z,19.30
2019-04-30T07:18:44.218Z,19.67
2019-04-30T07:21:13.014Z,19.63
2019-04-30T07:23:41.720Z,19.87
2019-04-30T07:26:13.855Z,19.40
2019-04-30T07:28:46.982Z,18.63
2019-04-30T07:31:14.421Z,20.93
2019-04-30T07:33:41.797Z,20.20
2019-04-30T07:36:10.480Z,21.17
2019-04-30T07:38:45.767Z,18.23
2019-04-30T07:41:09.750Z,19.27
2019-04-30T07:43:39.331Z,18.73
2019-04-30T07:46:09.326Z,15.83
2019-04-30T07:48:40.285Z,18.93
2019-04-30T07:51:10.407Z,18.43
2019-04-30T07:53:40.443Z,16.70
2019-04-30T07:56:24.438Z,16.23
2019-04-30T07:58:39.826Z,17.20
2019-04-30T08:01:10.375Z,16.67
2019-04-30T08:03:59.048Z,22.97
2019-04-30T08:06:30.881Z,19.50
2019-04-30T08:09:00.806Z,22.40
2019-04-30T08:11:29.601Z,18.67
2019-04-30T08:13:58.930Z,18.77
2019-04-30T08:16:28.801Z,14.10
2019-04-30T08:18:59.166Z,15.53
2019-04-30T08:21:28.760Z,21.83
2019-04-30T08:23:59.360Z,18.50
2019-04-30T08:26:28.655Z,15.93
2019-04-30T08:28:59.629Z,19.60
2019-04-30T08:31:29.199Z,16.30
2019-04-30T08:33:59.151Z,22.77
2019-04-30T08:36:29.824Z,18.53
2019-04-30T08:38:59.661Z,16.73
2019-04-30T08:41:29.224Z,14.47
2019-04-30T08:43:59.842Z,19.43
2019-04-30T08:46:28.760Z,16.53
2019-04-30T08:48:58.744Z,15.43
2019-04-30T08:51:28.882Z,22.77
2019-04-30T08:53:58.716Z,20.07
2019-04-30T08:56:29.550Z,24.40
2019-04-30T08:58:59.394Z,20.27
2019-04-30T09:01:29.444Z,18.20
2019-04-30T09:03:59.653Z,16.93
2019-04-30T09:06:29.932Z,17.27
2019-04-30T09:08:59.438Z,20.30
2019-04-30T09:11:35.499Z,20.33
2019-04-30T09:13:58.629Z,17.00
2019-04-30T09:16:29.319Z,15.73
2019-04-30T09:18:59.514Z,19.50
2019-04-30T09:21:30.036Z,14.37
2019-04-30T09:23:59.420Z,18.83
2019-04-30T09:26:29.047Z,18.83
2019-04-30T09:28:59.283Z,22.87
2019-04-30T09:31:29.633Z,15.07
2019-04-30T09:34:00.812Z,16.30
2019-04-30T09:36:29.359Z,18.80
2019-04-30T09:38:58.764Z,19.60
2019-04-30T09:41:28.908Z,13.93
2019-04-30T09:43:59.676Z,15.80
2019-04-30T09:46:29.915Z,15.20
2019-04-30T09:48:59.804Z,15.83
2019-04-30T09:51:30.664Z,20.30
2019-04-30T09:54:02.403Z,19.00
2019-04-30T09:56:29.613Z,17.90
2019-04-30T09:58:59.263Z,15.30
2019-04-30T10:01:28.157Z,19.10
2019-04-30T10:03:57.347Z,22.50
2019-04-30T10:06:39.054Z,14.87
2019-04-30T10:08:59.586Z,15.53
2019-04-30T10:11:29.789Z,18.07
2019-04-30T10:13:58.493Z,15.90
2019-04-30T10:16:29.626Z,15.50
2019-04-30T10:18:59.231Z,16.73
2019-04-30T10:21:29.089Z,19.20
2019-04-30T10:24:11.232Z,22.33
2019-04-30T10:26:28.277Z,14.97
2019-04-30T10:28:56.988Z,15.07
2019-04-30T10:31:25.706Z,19.27
2019-04-30T10:33:54.417Z,15.67
2019-04-30T10:36:23.184Z,14.90
2019-04-30T10:38:51.879Z,13.37
2019-04-30T10:41:20.632Z,13.73
2019-04-30T10:43:49.427Z,13.60
2019-04-30T10:46:18.223Z,11.87
2019-04-30T10:48:46.976Z,14.50
2019-04-30T10:51:15.691Z,11.63
2019-04-30T10:53:44.400Z,15.47
2019-04-30T10:56:13.124Z,16.23
2019-04-30T10:58:41.842Z,16.00
2019-04-30T11:01:10.585Z,10.20
2019-04-30T11:03:39.298Z,13.43
2019-04-30T11:06:08.649Z,15.33
2019-04-30T11:08:37.523Z,9.40
2019-04-30T11:11:06.457Z,10.00
2019-04-30T11:13:35.227Z,14.30
2019-04-30T11:16:12.553Z,14.27
2019-04-30T11:18:34.611Z,12.50
2019-04-30T11:21:03.613Z,12.90
2019-04-30T11:23:32.662Z,13.03
2019-04-30T11:26:02.255Z,14.53
2019-04-30T11:28:31.675Z,13.83
2019-04-30T11:31:17.397Z,13.70
2019-04-30T11:33:46.656Z,11.37
2019-04-30T11:36:15.598Z,11.33
2019-04-30T11:38:44.316Z,11.23
2019-04-30T11:41:13.124Z,14.23
2019-04-30T11:43:41.879Z,14.07
2019-04-30T11:46:25.570Z,10.67
2019-04-30T11:48:54.929Z,13.10
2019-04-30T11:51:23.637Z,12.37
2019-04-30T11:53:52.447Z,13.63
2019-04-30T11:56:21.163Z,11.07
2019-04-30T11:58:49.875Z,9.30
2019-04-30T12:01:26.372Z,12.63
2019-04-30T12:03:55.087Z,15.83
2019-04-30T12:06:23.828Z,11.33
2019-04-30T12:08:56.716Z,11.90
2019-04-30T12:11:38.905Z,13.67
2019-04-30T12:14:07.812Z,9.67
2019-04-30T12:16:36.621Z,11.60
2019-04-30T12:19:05.444Z,12.07
2019-04-30T12:21:34.156Z,11.83
2019-04-30T12:24:02.919Z,12.43
2019-04-30T12:26:31.618Z,11.87
2019-04-30T12:29:00.324Z,14.13
2019-04-30T12:31:29.742Z,15.03
2019-04-30T12:33:58.526Z,16.60
2019-04-30T12:36:28.928Z,10.77
2019-04-30T12:38:57.771Z,11.00
2019-04-30T12:41:26.476Z,15.07
2019-04-30T12:43:55.191Z,11.87
2019-04-30T12:46:23.900Z,11.03
2019-04-30T12:48:54.189Z,11.13
2019-04-30T12:51:30.537Z,9.47
2019-04-30T12:54:06.837Z,14.30
2019-04-30T12:56:40.092Z,13.20
2019-04-30T12:59:08.820Z,12.40
2019-04-30T13:01:39.758Z,6.80
2019-04-30T13:04:09.817Z,8.07
2019-04-30T13:06:39.008Z,5.67
2019-04-30T13:09:10.768Z,6.87
2019-04-30T13:11:40.964Z,7.17
2019-04-30T13:14:11.062Z,5.23
2019-04-30T13:16:40.227Z,4.80
2019-04-30T13:19:09.355Z,7.83
2019-04-30T13:21:39.544Z,5.67
2019-04-30T13:24:08.545Z,6.43
2019-04-30T13:26:37.279Z,10.97
2019-04-30T13:29:07.555Z,12.00
2019-04-30T13:31:36.266Z,8.20
2019-04-30T13:34:22.960Z,5.43
2019-04-30T13:36:51.660Z,9.43
2019-04-30T13:39:31.035Z,9.23
2019-04-30T13:42:15.910Z,5.80
2019-04-30T13:44:39.464Z,6.50
2019-04-30T13:47:10.652Z,4.40
2019-04-30T13:49:39.484Z,6.13
2019-04-30T13:52:08.262Z,9.10
2019-04-30T13:54:36.975Z,10.27
2019-04-30T13:57:05.687Z,7.20
2019-04-30T13:59:34.399Z,6.57
2019-04-30T14:02:03.116Z,5.83
2019-04-30T14:04:45.611Z,8.07
2019-04-30T14:07:15.902Z,4.63
2019-04-30T14:09:44.807Z,5.77
2019-04-30T14:12:13.519Z,5.57
2019-04-30T14:14:42.227Z,5.10
2019-04-30T14:17:10.969Z,7.27
2019-04-30T14:19:39.776Z,10.03
2019-04-30T14:22:09.029Z,4.97
2019-04-30T14:24:37.785Z,6.97
2019-04-30T14:27:06.494Z,7.40
2019-04-30T14:29:35.205Z,6.47
2019-04-30T14:32:03.915Z,4.33
2019-04-30T14:34:32.664Z,5.73
2019-04-30T14:37:01.370Z,7.33
2019-04-30T14:39:30.257Z,8.30
2019-04-30T14:42:00.075Z,10.23
2019-04-30T14:44:34.355Z,5.53
2019-04-30T14:47:05.258Z,5.03
2019-04-30T14:50:01.293Z,6.63
2019-04-30T14:52:21.293Z,4.33
2019-04-30T14:55:06.259Z,6.77
2019-04-30T14:57:39.251Z,5.70
2019-04-30T15:00:26.141Z,8.43
2019-04-30T15:02:58.545Z,8.80
2019-04-30T15:05:38.585Z,7.37
2019-04-30T15:07:59.366Z,9.13
2019-04-30T15:10:27.839Z,8.57
2019-04-30T15:12:56.549Z,2.43
2019-04-30T15:15:25.357Z,1.77
2019-04-30T15:17:54.063Z,4.10
2019-04-30T15:20:22.780Z,3.40
2019-04-30T15:23:09.431Z,3.00
2019-04-30T15:25:38.820Z,7.77
2019-04-30T15:28:07.523Z,2.23
2019-04-30T15:30:36.269Z,5.07
2019-04-30T15:33:23.051Z,4.13
2019-04-30T15:35:51.805Z,5.67
2019-04-30T15:38:22.083Z,5.17
2019-04-30T15:40:50.794Z,5.27
2019-04-30T15:43:19.513Z,4.37
2019-04-30T15:45:49.396Z,4.10
2019-04-30T15:48:19.629Z,4.70
2019-04-30T15:50:49.281Z,4.93
2019-04-30T15:53:19.358Z,4.53
2019-04-30T15:55:48.302Z,6.27
2019-04-30T15:58:18.582Z,5.93
2019-04-30T16:00:49.268Z,5.37
2019-04-30T16:03:22.345Z,2.90
2019-04-30T16:05:57.025Z,2.73
2019-04-30T16:08:29.063Z,4.87
2019-04-30T16:11:07.267Z,8.77
2019-04-30T16:13:49.960Z,4.27
2019-04-30T16:16:19.200Z,6.40
2019-04-30T16:18:49.615Z,49.50
2019-04-30T16:21:19.350Z,20.30
2019-04-30T16:23:49.091Z,6.07
2019-04-30T16:26:17.965Z,6.50
2019-04-30T16:28:46.801Z,9.53
2019-04-30T16:31:15.510Z,3.90
2019-04-30T16:33:44.212Z,7.73
2019-04-30T16:36:12.925Z,6.17
2019-04-30T16:38:41.633Z,6.70
2019-04-30T16:41:10.408Z,39.53
2019-04-30T16:43:39.130Z,112.73
2019-04-30T16:46:07.836Z,17.90
2019-04-30T16:48:36.553Z,29.50
2019-04-30T16:51:05.266Z,10.40
2019-04-30T16:53:34.331Z,11.07
2019-04-30T16:56:03.043Z,10.40
2019-04-30T16:58:33.330Z,9.03
2019-04-30T17:01:03.618Z,8.10
2019-04-30T17:03:38.713Z,9.87
2019-04-30T17:06:11.821Z,31.13
2019-04-30T17:08:42.109Z,12.63
2019-04-30T17:11:12.394Z,19.90
2019-04-30T17:13:42.679Z,7.07
2019-04-30T17:16:15.775Z,20.93
2019-04-30T17:18:44.504Z,24.77
2019-04-30T17:21:13.262Z,122.40
2019-04-30T17:23:41.985Z,61.80
2019-04-30T17:26:10.693Z,12.40
2019-04-30T17:28:39.419Z,21.70
2019-04-30T17:31:09.726Z,19.03
2019-04-30T17:33:38.669Z,12.20
2019-04-30T17:36:10.914Z,4.67
2019-04-30T17:38:38.756Z,8.83
2019-04-30T17:41:07.467Z,8.77
2019-04-30T17:43:36.176Z,8.03
2019-04-30T17:46:04.946Z,2.93
2019-04-30T17:48:33.665Z,14.83
2019-04-30T17:51:02.420Z,17.47
2019-04-30T17:53:32.189Z,4.30
2019-04-30T17:56:00.912Z,4.60
2019-04-30T17:58:29.690Z,12.97
2019-04-30T18:01:00.192Z,51.77
2019-04-30T18:03:29.012Z,38.70
2019-04-30T18:05:59.176Z,10.53
2019-04-30T18:08:28.456Z,8.20
2019-04-30T18:10:57.201Z,3.47
2019-04-30T18:13:25.926Z,4.37
2019-04-30T18:15:54.633Z,10.37
2019-04-30T18:18:24.916Z,6.83
2019-04-30T18:20:56.899Z,11.67
2019-04-30T18:23:36.451Z,9.83
2019-04-30T18:26:16.040Z,8.23
2019-04-30T18:28:44.767Z,12.97
2019-04-30T18:31:13.493Z,18.97
2019-04-30T18:33:42.233Z,24.07
2019-04-30T18:36:10.958Z,29.20
2019-04-30T18:38:40.378Z,7.17
2019-04-30T18:41:09.532Z,10.40
2019-04-30T18:43:40.371Z,4.03
2019-04-30T18:46:10.736Z,2.37
2019-04-30T18:48:39.427Z,3.40
2019-04-30T18:51:23.787Z,4.57
2019-04-30T18:53:39.705Z,3.23
2019-04-30T18:56:14.276Z,1.00
2019-04-30T18:58:42.610Z,1.37
2019-04-30T19:01:10.012Z,3.23
2019-04-30T19:03:39.131Z,2.70
2019-04-30T19:06:22.246Z,2.73
2019-04-30T19:08:44.874Z,1.27
2019-04-30T19:11:33.315Z,2.73
2019-04-30T19:14:20.174Z,2.63
2019-04-30T19:17:06.928Z,2.70
2019-04-30T19:19:40.353Z,1.00
2019-04-30T19:22:09.205Z,4.17
2019-04-30T19:24:37.962Z,2.50
2019-04-30T19:27:08.691Z,5.47
2019-04-30T19:29:37.468Z,22.47
2019-04-30T19:32:06.185Z,4.53
2019-04-30T19:34:34.900Z,5.97
2019-04-30T19:37:03.667Z,4.00
2019-04-30T19:39:32.611Z,2.53
2019-04-30T19:42:01.372Z,2.50
2019-04-30T19:44:30.168Z,5.47
2019-04-30T19:46:58.901Z,2.87
2019-04-30T19:49:27.602Z,1.47
2019-04-30T19:52:06.244Z,2.80
2019-04-30T19:54:26.793Z,2.30
2019-04-30T19:56:55.543Z,3.17
2019-04-30T19:59:24.261Z,2.80
2019-04-30T20:01:53.000Z,1.80
2019-04-30T20:04:32.809Z,2.43
2019-04-30T20:06:52.167Z,3.27
2019-04-30T20:09:20.885Z,2.77
2019-04-30T20:11:49.789Z,2.83
2019-04-30T20:14:18.765Z,1.50
2019-04-30T20:16:48.712Z,2.07
2019-04-30T20:19:17.659Z,2.03
2019-04-30T20:21:53.104Z,2.90
2019-04-30T20:24:16.797Z,1.83
2019-04-30T20:26:45.680Z,1.57
2019-04-30T20:29:14.385Z,1.93
2019-04-30T20:31:43.182Z,2.50
2019-04-30T20:34:11.900Z,2.20
2019-04-30T20:36:40.617Z,4.37
2019-04-30T20:39:10.909Z,1.70
2019-04-30T20:41:39.652Z,3.30
2019-04-30T20:44:08.729Z,2.23
2019-04-30T20:46:39.322Z,2.10
2019-04-30T20:49:09.183Z,1.87
2019-04-30T20:51:40.165Z,1.70
2019-04-30T20:54:09.117Z,2.00
2019-04-30T20:56:38.982Z,3.30
2019-04-30T20:59:10.591Z,2.27
2019-04-30T21:01:39.770Z,2.53
2019-04-30T21:04:08.527Z,2.20
2019-04-30T21:06:39.065Z,2.63
2019-04-30T21:09:08.225Z,2.60
2019-04-30T21:11:38.566Z,2.70
2019-04-30T21:14:08.923Z,1.50
2019-04-30T21:16:37.862Z,3.60
2019-04-30T21:19:06.772Z,1.90
2019-04-30T21:21:35.483Z,2.60
2019-04-30T21:24:04.334Z,2.73
2019-04-30T21:26:33.040Z,3.63
2019-04-30T21:31:36.521Z,2.23
2019-04-30T21:34:19.629Z,1.50
2019-04-30T21:34:41.297Z,2.60
2019-04-30T21:36:49.598Z,4.30
2019-04-30T21:39:20.159Z,2.10
2019-04-30T21:41:49.415Z,2.93
2019-04-30T21:44:18.671Z,3.43
2019-04-30T21:46:47.485Z,1.97
2019-04-30T21:49:16.207Z,1.40
2019-04-30T21:51:45.035Z,2.90
2019-04-30T21:54:13.706Z,3.27
2019-04-30T21:56:42.457Z,2.53
2019-04-30T21:59:23.738Z,1.60
2019-04-30T22:01:43.409Z,2.80
2019-04-30T22:04:12.236Z,2.33
2019-04-30T22:06:40.972Z,4.23
2019-04-30T22:09:11.093Z,2.00
2019-04-30T22:11:39.854Z,2.30
2019-04-30T22:14:08.566Z,2.30
2019-04-30T22:16:39.615Z,2.00
2019-04-30T22:19:07.769Z,1.73
2019-04-30T22:21:36.650Z,1.70
2019-04-30T22:24:05.457Z,2.33
2019-04-30T22:26:34.571Z,1.60
2019-04-30T22:29:03.384Z,2.57
2019-04-30T22:31:32.236Z,3.90
2019-04-30T22:34:00.942Z,2.47
2019-04-30T22:36:34.020Z,4.27
2019-04-30T22:39:20.474Z,2.73
2019-04-30T22:41:49.355Z,1.80
2019-04-30T22:44:18.178Z,4.33
2019-04-30T22:46:49.150Z,3.03
2019-04-30T22:49:17.521Z,2.30
2019-04-30T22:51:46.275Z,2.47
2019-04-30T22:54:46.024Z,2.53
2019-04-30T22:57:14.725Z,2.20
2019-04-30T22:59:49.751Z,2.70
2019-04-30T23:02:31.729Z,1.90
2019-04-30T23:05:02.325Z,2.93
2019-04-30T23:07:31.005Z,4.10
2019-04-30T23:09:59.718Z,4.00
2019-04-30T23:12:28.495Z,3.20
2019-04-30T23:14:57.202Z,2.77
2019-04-30T23:17:25.903Z,2.73
2019-04-30T23:19:54.622Z,2.80
2019-04-30T23:22:23.334Z,2.90
2019-04-30T23:24:52.081Z,2.63
2019-04-30T23:27:20.810Z,2.50
2019-04-30T23:30:02.505Z,3.03
2019-04-30T23:32:19.992Z,2.47
2019-04-30T23:34:48.690Z,2.60
2019-04-30T23:37:17.398Z,4.43
2019-04-30T23:39:46.145Z,2.80
2019-04-30T23:42:14.823Z,2.53
2019-04-30T23:44:43.539Z,2.60
2019-04-30T23:47:12.256Z,2.00
2019-04-30T23:49:41.017Z,2.87
2019-04-30T23:52:09.726Z,4.87
2019-04-30T23:54:38.427Z,4.80
2019-04-30T23:57:07.152Z,3.20
2019-04-30T23:59:35.856Z,2.73
